createdAt,value
2023-04-23T00:02:23.103Z,98691.99
2023-04-23T00:07:27.731Z,98692.73
2023-04-23T00:12:31.456Z,98689.76
2023-04-23T00:17:34.686Z,98688.85
2023-04-23T00:22:38.814Z,98684.31
2023-04-23T00:27:41.938Z,98683.81
2023-04-23T00:32:45.112Z,98683.66
2023-04-23T00:37:48.881Z,98686.23
2023-04-23T00:42:53.936Z,98685.06
2023-04-23T00:47:56.988Z,98679.64
2023-04-23T00:53:00.277Z,98678.66
2023-04-23T00:58:04.127Z,98683.50
2023-04-23T01:03:07.455Z,98679.54
2023-04-23T01:08:16.043Z,98675.44
2023-04-23T01:13:19.134Z,98677.35
2023-04-23T01:18:23.319Z,98675.84
2023-04-23T01:23:27.352Z,98675.16
2023-04-23T01:28:31.358Z,98680.29
2023-04-23T01:33:36.050Z,98680.39
2023-04-23T01:38:39.640Z,98681.90
2023-04-23T01:43:43.682Z,98687.80
2023-04-23T01:48:46.793Z,98685.34
2023-04-23T01:53:49.950Z,98689.55
2023-04-23T01:58:53.342Z,98689.42
2023-04-23T02:03:59.438Z,98692.94
2023-04-23T02:09:03.955Z,98692.33
2023-04-23T02:14:07.946Z,98693.65
2023-04-23T02:19:12.129Z,98692.19
2023-04-23T02:24:16.272Z,98689.87
2023-04-23T02:29:19.456Z,98688.88
2023-04-23T02:34:22.659Z,98685.11
2023-04-23T02:39:26.398Z,98687.56
2023-04-23T02:44:29.513Z,98684.30
2023-04-23T02:49:32.726Z,98683.56
2023-04-23T02:54:37.294Z,98686.32
2023-04-23T02:59:40.990Z,98684.88
2023-04-23T03:04:44.421Z,98686.73
2023-04-23T03:09:55.516Z,98682.43
2023-04-23T03:14:58.677Z,98683.09
2023-04-23T03:20:05.883Z,98684.48
2023-04-23T03:25:10.421Z,98682.30
2023-04-23T03:30:15.404Z,98688.77
2023-04-23T03:35:18.922Z,98691.93
2023-04-23T03:40:23.779Z,98692.30
2023-04-23T03:45:31.185Z,98691.90
2023-04-23T03:50:39.417Z,98692.27
2023-04-23T03:55:52.619Z,98693.96
2023-04-23T04:00:57.718Z,98691.08
2023-04-23T04:06:00.875Z,98690.75
2023-04-23T04:11:04.186Z,98693.16
2023-04-23T04:16:07.405Z,98693.61
2023-04-23T04:21:10.590Z,98699.77
2023-04-23T04:26:15.382Z,98700.56
2023-04-23T04:31:20.629Z,98702.40
2023-04-23T04:36:25.437Z,98707.21
2023-04-23T04:41:28.589Z,98708.80
2023-04-23T04:46:32.142Z,98711.23
2023-04-23T04:51:35.831Z,98707.09
2023-04-23T04:56:39.722Z,98705.24
2023-04-23T05:01:43.530Z,98708.30
2023-04-23T05:06:46.527Z,98707.48
2023-04-23T05:11:49.858Z,98707.14
2023-04-23T05:16:53.045Z,98704.60
2023-04-23T05:21:56.823Z,98701.35
2023-04-23T05:26:59.913Z,98697.30
2023-04-23T05:32:03.106Z,98693.92
2023-04-23T05:37:06.699Z,98696.45
2023-04-23T05:42:09.829Z,98697.56
2023-04-23T05:47:14.397Z,98696.90
2023-04-23T05:52:17.914Z,98692.26
2023-04-23T05:57:20.888Z,98697.14
2023-04-23T06:02:25.094Z,98700.38
2023-04-23T06:07:28.358Z,98701.16
2023-04-23T06:12:32.418Z,98694.44
2023-04-23T06:17:36.470Z,98694.38
2023-04-23T06:22:39.804Z,98695.76
2023-04-23T06:27:43.026Z,98695.89
2023-04-23T06:32:54.452Z,98700.03
2023-04-23T06:37:57.523Z,98696.38
2023-04-23T06:43:04.664Z,98696.11
2023-04-23T06:48:18.745Z,98690.61
2023-04-23T06:53:22.538Z,98685.02
2023-04-23T06:58:31.319Z,98677.54
2023-04-23T07:03:35.279Z,98676.61
2023-04-23T07:08:39.883Z,98671.48
2023-04-23T07:13:42.985Z,98672.02
2023-04-23T07:18:46.294Z,98675.65
2023-04-23T07:23:49.353Z,98673.27
2023-04-23T07:28:53.063Z,98668.20
2023-04-23T07:33:56.489Z,98667.63
2023-04-23T07:38:59.557Z,98666.21
2023-04-23T07:44:02.657Z,98661.27
2023-04-23T07:49:05.759Z,98660.11
2023-04-23T07:54:09.937Z,98655.58
2023-04-23T07:59:13.102Z,98653.17
2023-04-23T08:04:16.457Z,98651.85
2023-04-23T08:09:28.821Z,98642.16
2023-04-23T08:14:31.862Z,98637.11
2023-04-23T08:19:35.463Z,98634.75
2023-04-23T08:24:38.604Z,98626.21
2023-04-23T08:29:41.977Z,98622.95
2023-04-23T08:34:45.177Z,98618.50
2023-04-23T08:39:48.219Z,98616.34
2023-04-23T08:44:53.287Z,98611.23
2023-04-23T08:49:59.548Z,98598.27
2023-04-23T08:55:07.638Z,98593.61
2023-04-23T09:00:12.034Z,98590.44
2023-04-23T09:05:15.980Z,98581.85
2023-04-23T09:10:18.936Z,98578.45
2023-04-23T09:15:22.586Z,98574.98
2023-04-23T09:25:41.829Z,98560.72
2023-04-23T09:30:46.076Z,98558.02
2023-04-23T09:35:49.145Z,98552.78
2023-04-23T09:40:52.242Z,98550.98
2023-04-23T09:45:55.354Z,98544.44
2023-04-23T09:51:02.562Z,98541.35
2023-04-23T09:56:07.474Z,98535.11
2023-04-23T10:01:11.162Z,98529.82
2023-04-23T10:06:39.681Z,98525.50
2023-04-23T10:11:42.395Z,98516.10
2023-04-23T10:16:51.103Z,98507.60
2023-04-23T10:22:15.921Z,98502.57
2023-04-23T10:27:40.434Z,98492.74
2023-04-23T10:32:52.009Z,98492.49
2023-04-23T10:37:56.036Z,98480.23
2023-04-23T10:43:00.516Z,98469.09
2023-04-23T10:48:04.683Z,98464.39
2023-04-23T10:53:19.027Z,98458.34
2023-04-23T10:58:24.796Z,98460.04
2023-04-23T11:03:46.194Z,98458.21
2023-04-23T11:08:57.016Z,98459.50
2023-04-23T11:14:16.359Z,98456.29
2023-04-23T11:19:20.751Z,98450.19
2023-04-23T11:24:25.201Z,98442.22
2023-04-23T11:29:29.198Z,98437.81
2023-04-23T11:34:34.023Z,98430.80
2023-04-23T11:39:37.093Z,98423.60
2023-04-23T11:44:41.982Z,98425.39
2023-04-23T11:49:45.846Z,98421.09
2023-04-23T11:54:49.312Z,98423.59
2023-04-23T11:59:53.868Z,98416.73
2023-04-23T12:04:56.929Z,98415.77
2023-04-23T12:10:03.280Z,98413.11
2023-04-23T12:15:07.619Z,98408.30
2023-04-23T12:20:13.498Z,98406.46
2023-04-23T12:25:17.258Z,98410.18
2023-04-23T12:30:20.571Z,98403.73
2023-04-23T12:35:44.286Z,98397.80
2023-04-23T12:40:47.592Z,98396.73
2023-04-23T12:45:51.468Z,98390.01
2023-04-23T12:50:54.514Z,98373.89
2023-04-23T12:55:57.771Z,98358.00
2023-04-23T13:01:01.071Z,98352.34
2023-04-23T13:06:04.496Z,98352.89
2023-04-23T13:11:07.703Z,98350.77
2023-04-23T13:16:11.937Z,98346.83
2023-04-23T13:21:15.055Z,98340.34
2023-04-23T13:26:18.393Z,98335.66
2023-04-23T13:31:21.436Z,98333.48
2023-04-23T13:36:25.455Z,98329.45
2023-04-23T13:41:28.853Z,98325.76
2023-04-23T13:46:32.467Z,98324.36
2023-04-23T13:51:36.316Z,98309.48
2023-04-23T16:05:31.819Z,98228.98
2023-04-23T16:10:35.185Z,98225.52
2023-04-23T16:15:38.353Z,98226.50
2023-04-23T16:20:41.523Z,98224.86
2023-04-23T16:25:45.006Z,98221.38
2023-04-23T16:30:48.080Z,98220.36
2023-04-23T16:35:51.177Z,98220.30
2023-04-23T16:40:54.648Z,98213.08
2023-04-23T16:45:58.587Z,98212.08
2023-04-23T16:51:01.779Z,98207.67
2023-04-23T16:56:05.538Z,98202.73
2023-04-23T17:01:08.562Z,98200.51
2023-04-23T17:06:27.587Z,98201.53
2023-04-23T17:11:31.720Z,98202.98
2023-04-23T17:16:34.975Z,98202.90
2023-04-23T17:25:35.846Z,98205.53
2023-04-23T17:30:39.039Z,98202.74
2023-04-23T17:35:42.213Z,98200.69
2023-04-23T17:40:45.333Z,98205.59
2023-04-23T17:45:48.893Z,98206.33
2023-04-23T17:50:57.306Z,98209.34
2023-04-23T17:56:03.179Z,98215.46
2023-04-23T18:01:08.678Z,98218.27
2023-04-23T18:06:12.940Z,98220.11
2023-04-23T18:11:16.189Z,98226.98
2023-04-23T18:16:19.696Z,98232.89
2023-04-23T18:21:23.486Z,98233.04
2023-04-23T18:26:27.159Z,98236.69
2023-04-23T18:31:32.939Z,98239.05
2023-04-23T18:36:43.037Z,98241.61
2023-04-23T18:41:47.534Z,98240.80
2023-04-23T18:46:51.242Z,98238.73
2023-04-23T18:51:54.456Z,98234.58
2023-04-23T18:56:57.903Z,98237.70
2023-04-23T19:02:03.462Z,98235.05
2023-04-23T19:07:06.769Z,98239.29
2023-04-23T19:12:09.912Z,98237.26
2023-04-23T19:17:12.948Z,98233.84
2023-04-23T19:22:16.104Z,98233.56
2023-04-23T19:27:19.246Z,98233.23
2023-04-23T19:32:23.023Z,98231.98
2023-04-23T19:37:26.361Z,98233.17
2023-04-23T19:42:30.146Z,98230.88
2023-04-23T19:47:35.072Z,98226.02
2023-04-23T19:52:38.230Z,98222.02
2023-04-23T19:57:41.449Z,98226.48
2023-04-23T20:02:44.595Z,98223.02
2023-04-23T20:07:49.176Z,98225.18
2023-04-23T20:12:52.748Z,98225.98
2023-04-23T20:17:55.997Z,98224.05
2023-04-23T20:22:59.123Z,98227.30
2023-04-23T20:28:02.894Z,98226.31
2023-04-23T20:33:07.302Z,98226.39
2023-04-23T20:38:12.989Z,98221.92
2023-04-23T20:43:17.541Z,98224.09
2023-04-23T20:48:20.762Z,98227.41
2023-04-23T20:53:24.146Z,98228.04
2023-04-23T20:58:27.570Z,98232.13
2023-04-23T21:03:33.605Z,98233.38
2023-04-23T21:08:42.970Z,98231.73
2023-04-23T21:13:47.973Z,98231.11
2023-04-23T21:18:58.943Z,98235.36
2023-04-23T21:24:03.407Z,98233.14
2023-04-23T21:29:06.436Z,98236.08
2023-04-23T21:34:09.684Z,98231.39
2023-04-23T21:39:13.413Z,98227.31
2023-04-23T21:44:17.451Z,98227.04
2023-04-23T21:49:21.833Z,98225.00
2023-04-23T21:54:24.851Z,98224.61
2023-04-23T21:59:27.999Z,98222.54
2023-04-23T22:04:31.212Z,98224.31
2023-04-23T22:09:34.362Z,98221.10
2023-04-23T22:14:37.859Z,98223.25
2023-04-23T22:19:41.023Z,98222.36
2023-04-23T22:24:44.413Z,98220.64
2023-04-23T22:29:47.390Z,98222.58
2023-04-23T22:34:51.780Z,98221.73
2023-04-23T22:39:54.888Z,98217.08
2023-04-23T22:44:58.037Z,98217.35
2023-04-23T22:50:02.189Z,98215.06
2023-04-23T22:55:05.713Z,98221.31
2023-04-23T23:00:11.418Z,98222.38
2023-04-23T23:05:14.692Z,98221.70
2023-04-23T23:10:17.970Z,98220.20
2023-04-23T23:15:21.153Z,98216.29
2023-04-23T23:20:24.299Z,98214.27
2023-04-23T23:25:27.295Z,98210.88
2023-04-23T23:30:30.996Z,98203.70
2023-04-23T23:35:34.078Z,98212.66
2023-04-23T23:40:38.002Z,98214.86
2023-04-23T23:45:40.993Z,98215.83
2023-04-23T23:50:44.078Z,98215.02
2023-04-23T23:55:47.089Z,98212.83
